sensor_id;sensor_type;location;lat;lon;timestamp;temperature;humidity
37410;DHT22;23275;48.914;12.566;2023-03-31T00:01:36;5.80;99.90
37410;DHT22;23275;48.914;12.566;2023-03-31T00:04:09;5.80;99.90
37410;DHT22;23275;48.914;12.566;2023-03-31T00:06:38;5.90;99.90
37410;DHT22;23275;48.914;12.566;2023-03-31T00:09:08;5.80;99.90
37410;DHT22;23275;48.914;12.566;2023-03-31T00:11:34;5.80;99.90
37410;DHT22;23275;48.914;12.566;2023-03-31T00:14:00;5.80;99.90
37410;DHT22;23275;48.914;12.566;2023-03-31T00:16:26;5.90;99.90
37410;DHT22;23275;48.914;12.566;2023-03-31T00:18:51;6.00;99.90
37410;DHT22;23275;48.914;12.566;2023-03-31T00:21:20;6.00;99.90
37410;DHT22;23275;48.914;12.566;2023-03-31T00:23:51;6.00;99.90
37410;DHT22;23275;48.914;12.566;2023-03-31T00:26:17;5.90;99.90
37410;DHT22;23275;48.914;12.566;2023-03-31T00:28:42;5.90;99.90
37410;DHT22;23275;48.914;12.566;2023-03-31T00:31:08;5.80;99.90
37410;DHT22;23275;48.914;12.566;2023-03-31T00:33:33;5.70;99.90
37410;DHT22;23275;48.914;12.566;2023-03-31T00:35:59;5.60;99.90
37410;DHT22;23275;48.914;12.566;2023-03-31T00:38:27;5.60;99.90
37410;DHT22;23275;48.914;12.566;2023-03-31T00:40:55;5.70;99.90
37410;DHT22;23275;48.914;12.566;2023-03-31T00:43:40;5.70;99.90
37410;DHT22;23275;48.914;12.566;2023-03-31T00:48:53;5.10;99.90
37410;DHT22;23275;48.914;12.566;2023-03-31T00:51:23;5.10;99.90
37410;DHT22;23275;48.914;12.566;2023-03-31T00:53:55;5.20;99.90
37410;DHT22;23275;48.914;12.566;2023-03-31T00:56:25;5.40;99.90
37410;DHT22;23275;48.914;12.566;2023-03-31T00:58:54;5.50;99.90
37410;DHT22;23275;48.914;12.566;2023-03-31T01:01:23;5.50;99.90
37410;DHT22;23275;48.914;12.566;2023-03-31T01:03:52;5.70;99.90
37410;DHT22;23275;48.914;12.566;2023-03-31T01:06:18;5.90;99.90
37410;DHT22;23275;48.914;12.566;2023-03-31T01:08:46;6.00;99.90
37410;DHT22;23275;48.914;12.566;2023-03-31T01:11:17;6.10;99.90
37410;DHT22;23275;48.914;12.566;2023-03-31T01:13:43;6.00;99.90
37410;DHT22;23275;48.914;12.566;2023-03-31T01:16:10;6.00;99.90
37410;DHT22;23275;48.914;12.566;2023-03-31T01:18:36;6.10;99.90
37410;DHT22;23275;48.914;12.566;2023-03-31T01:35:00;5.80;99.90
37410;DHT22;23275;48.914;12.566;2023-03-31T01:43:47;5.80;99.90
37410;DHT22;23275;48.914;12.566;2023-03-31T01:46:34;5.70;99.90
37410;DHT22;23275;48.914;12.566;2023-03-31T01:49:07;5.80;99.90
37410;DHT22;23275;48.914;12.566;2023-03-31T01:51:44;5.90;99.90
37410;DHT22;23275;48.914;12.566;2023-03-31T01:57:02;5.60;99.90
37410;DHT22;23275;48.914;12.566;2023-03-31T02:05:26;5.60;99.90
37410;DHT22;23275;48.914;12.566;2023-03-31T02:08:09;5.60;99.90
37410;DHT22;23275;48.914;12.566;2023-03-31T02:10:38;5.70;99.90
37410;DHT22;23275;48.914;12.566;2023-03-31T02:13:06;5.70;99.90
37410;DHT22;23275;48.914;12.566;2023-03-31T02:15:37;5.80;99.90
37410;DHT22;23275;48.914;12.566;2023-03-31T02:18:05;5.80;99.90
37410;DHT22;23275;48.914;12.566;2023-03-31T02:20:37;5.70;99.90
37410;DHT22;23275;48.914;12.566;2023-03-31T02:23:03;5.70;99.90
37410;DHT22;23275;48.914;12.566;2023-03-31T02:25:35;5.70;99.90
37410;DHT22;23275;48.914;12.566;2023-03-31T02:28:09;5.70;99.90
37410;DHT22;23275;48.914;12.566;2023-03-31T02:33:41;5.80;99.90
37410;DHT22;23275;48.914;12.566;2023-03-31T02:36:07;5.80;99.90
37410;DHT22;23275;48.914;12.566;2023-03-31T02:38:39;5.90;99.90
37410;DHT22;23275;48.914;12.566;2023-03-31T02:41:08;5.80;99.90
37410;DHT22;23275;48.914;12.566;2023-03-31T02:43:33;5.70;99.90
37410;DHT22;23275;48.914;12.566;2023-03-31T02:45:59;5.60;99.90
37410;DHT22;23275;48.914;12.566;2023-03-31T02:48:36;5.50;99.90
37410;DHT22;23275;48.914;12.566;2023-03-31T02:51:15;5.60;99.90
37410;DHT22;23275;48.914;12.566;2023-03-31T03:02:07;5.90;99.90
37410;DHT22;23275;48.914;12.566;2023-03-31T03:10:06;6.10;99.90
37410;DHT22;23275;48.914;12.566;2023-03-31T03:15:23;6.00;99.90
37410;DHT22;23275;48.914;12.566;2023-03-31T03:17:51;6.00;99.90
37410;DHT22;23275;48.914;12.566;2023-03-31T03:20:19;6.00;99.90
37410;DHT22;23275;48.914;12.566;2023-03-31T03:22:45;6.10;99.90
37410;DHT22;23275;48.914;12.566;2023-03-31T03:25:13;6.20;99.90
37410;DHT22;23275;48.914;12.566;2023-03-31T03:27:39;6.30;99.90
37410;DHT22;23275;48.914;12.566;2023-03-31T03:30:07;6.40;99.90
37410;DHT22;23275;48.914;12.566;2023-03-31T03:32:33;6.30;99.90
37410;DHT22;23275;48.914;12.566;2023-03-31T03:35:03;6.30;99.90
37410;DHT22;23275;48.914;12.566;2023-03-31T03:37:29;6.20;99.90
37410;DHT22;23275;48.914;12.566;2023-03-31T03:39:55;6.20;99.90
37410;DHT22;23275;48.914;12.566;2023-03-31T03:42:21;6.20;99.90
37410;DHT22;23275;48.914;12.566;2023-03-31T03:44:46;6.20;99.90
37410;DHT22;23275;48.914;12.566;2023-03-31T03:47:12;6.20;99.90
37410;DHT22;23275;48.914;12.566;2023-03-31T03:49:38;6.30;99.90
37410;DHT22;23275;48.914;12.566;2023-03-31T03:52:04;6.30;99.90
37410;DHT22;23275;48.914;12.566;2023-03-31T03:54:29;6.30;99.90
37410;DHT22;23275;48.914;12.566;2023-03-31T03:56:55;6.30;99.90
37410;DHT22;23275;48.914;12.566;2023-03-31T03:59:21;6.40;99.90
37410;DHT22;23275;48.914;12.566;2023-03-31T04:01:46;6.40;99.90
37410;DHT22;23275;48.914;12.566;2023-03-31T04:04:12;6.40;99.90
37410;DHT22;23275;48.914;12.566;2023-03-31T04:06:37;6.40;99.90
37410;DHT22;23275;48.914;12.566;2023-03-31T04:09:03;6.40;99.90
37410;DHT22;23275;48.914;12.566;2023-03-31T04:11:29;6.40;99.90
37410;DHT22;23275;48.914;12.566;2023-03-31T04:13:54;6.40;99.90
37410;DHT22;23275;48.914;12.566;2023-03-31T04:16:20;6.40;99.90
37410;DHT22;23275;48.914;12.566;2023-03-31T04:18:47;6.40;99.90
37410;DHT22;23275;48.914;12.566;2023-03-31T04:21:13;6.40;99.90
37410;DHT22;23275;48.914;12.566;2023-03-31T04:23:48;6.40;99.90
37410;DHT22;23275;48.914;12.566;2023-03-31T04:26:16;6.50;99.90
37410;DHT22;23275;48.914;12.566;2023-03-31T04:28:43;6.50;99.90
37410;DHT22;23275;48.914;12.566;2023-03-31T04:31:15;6.50;99.90
37410;DHT22;23275;48.914;12.566;2023-03-31T04:33:50;6.50;99.90
37410;DHT22;23275;48.914;12.566;2023-03-31T04:36:15;6.50;99.90
37410;DHT22;23275;48.914;12.566;2023-03-31T04:38:45;6.50;99.90
37410;DHT22;23275;48.914;12.566;2023-03-31T04:41:13;6.50;99.90
37410;DHT22;23275;48.914;12.566;2023-03-31T04:43:38;6.50;99.90
37410;DHT22;23275;48.914;12.566;2023-03-31T04:46:04;6.60;99.90
37410;DHT22;23275;48.914;12.566;2023-03-31T04:48:32;6.60;99.90
37410;DHT22;23275;48.914;12.566;2023-03-31T04:50:58;6.60;99.90
37410;DHT22;23275;48.914;12.566;2023-03-31T04:53:24;6.60;99.90
37410;DHT22;23275;48.914;12.566;2023-03-31T04:55:50;6.60;99.90
37410;DHT22;23275;48.914;12.566;2023-03-31T04:58:16;6.60;99.90
37410;DHT22;23275;48.914;12.566;2023-03-31T05:00:42;6.60;99.90
37410;DHT22;23275;48.914;12.566;2023-03-31T05:03:07;6.60;99.90
37410;DHT22;23275;48.914;12.566;2023-03-31T05:05:34;6.50;99.90
37410;DHT22;23275;48.914;12.566;2023-03-31T05:08:01;6.50;99.90
37410;DHT22;23275;48.914;12.566;2023-03-31T05:10:26;6.50;99.90
37410;DHT22;23275;48.914;12.566;2023-03-31T05:12:52;6.50;99.90
37410;DHT22;23275;48.914;12.566;2023-03-31T05:15:18;6.50;99.90
37410;DHT22;23275;48.914;12.566;2023-03-31T05:17:43;6.50;99.90
37410;DHT22;23275;48.914;12.566;2023-03-31T05:20:10;6.50;99.90
37410;DHT22;23275;48.914;12.566;2023-03-31T05:22:37;6.50;99.90
37410;DHT22;23275;48.914;12.566;2023-03-31T05:25:04;6.60;99.90
37410;DHT22;23275;48.914;12.566;2023-03-31T05:27:30;6.60;99.90
37410;DHT22;23275;48.914;12.566;2023-03-31T05:29:56;6.60;99.90
37410;DHT22;23275;48.914;12.566;2023-03-31T05:32:23;6.60;99.90
37410;DHT22;23275;48.914;12.566;2023-03-31T05:34:48;6.60;99.90
37410;DHT22;23275;48.914;12.566;2023-03-31T05:37:19;6.60;99.90
37410;DHT22;23275;48.914;12.566;2023-03-31T05:39:45;6.60;99.90
37410;DHT22;23275;48.914;12.566;2023-03-31T05:42:11;6.60;99.90
37410;DHT22;23275;48.914;12.566;2023-03-31T05:44:36;6.60;99.90
37410;DHT22;23275;48.914;12.566;2023-03-31T05:47:02;6.60;99.90
37410;DHT22;23275;48.914;12.566;2023-03-31T05:49:27;6.60;99.90
37410;DHT22;23275;48.914;12.566;2023-03-31T05:51:53;6.60;99.90
37410;DHT22;23275;48.914;12.566;2023-03-31T05:54:19;6.60;99.90
37410;DHT22;23275;48.914;12.566;2023-03-31T05:56:44;6.60;99.90
37410;DHT22;23275;48.914;12.566;2023-03-31T05:59:10;6.60;99.90
37410;DHT22;23275;48.914;12.566;2023-03-31T06:01:35;6.50;99.90
37410;DHT22;23275;48.914;12.566;2023-03-31T06:04:01;6.60;99.90
37410;DHT22;23275;48.914;12.566;2023-03-31T06:06:27;6.50;99.90
37410;DHT22;23275;48.914;12.566;2023-03-31T06:08:52;6.50;99.90
37410;DHT22;23275;48.914;12.566;2023-03-31T06:11:20;6.50;99.90
37410;DHT22;23275;48.914;12.566;2023-03-31T06:13:46;6.50;99.90
37410;DHT22;23275;48.914;12.566;2023-03-31T06:16:13;6.50;99.90
37410;DHT22;23275;48.914;12.566;2023-03-31T06:18:40;6.50;99.90
37410;DHT22;23275;48.914;12.566;2023-03-31T06:21:06;6.50;99.90
37410;DHT22;23275;48.914;12.566;2023-03-31T06:23:32;6.50;99.90
37410;DHT22;23275;48.914;12.566;2023-03-31T06:26:04;6.60;99.90
37410;DHT22;23275;48.914;12.566;2023-03-31T06:28:31;6.70;99.90
37410;DHT22;23275;48.914;12.566;2023-03-31T06:31:05;6.60;99.90
37410;DHT22;23275;48.914;12.566;2023-03-31T06:33:32;6.70;99.90
37410;DHT22;23275;48.914;12.566;2023-03-31T06:35:58;6.80;99.90
37410;DHT22;23275;48.914;12.566;2023-03-31T06:38:27;6.80;99.90
37410;DHT22;23275;48.914;12.566;2023-03-31T06:40:53;6.80;99.90
37410;DHT22;23275;48.914;12.566;2023-03-31T06:43:19;6.80;99.90
37410;DHT22;23275;48.914;12.566;2023-03-31T06:45:46;6.80;99.90
37410;DHT22;23275;48.914;12.566;2023-03-31T06:48:12;6.80;99.90
37410;DHT22;23275;48.914;12.566;2023-03-31T06:50:38;6.80;99.90
37410;DHT22;23275;48.914;12.566;2023-03-31T06:53:05;6.80;99.90
37410;DHT22;23275;48.914;12.566;2023-03-31T06:55:31;6.80;99.90
37410;DHT22;23275;48.914;12.566;2023-03-31T06:57:58;6.80;99.90
37410;DHT22;23275;48.914;12.566;2023-03-31T07:00:24;6.80;99.90
37410;DHT22;23275;48.914;12.566;2023-03-31T07:02:51;6.80;99.90
37410;DHT22;23275;48.914;12.566;2023-03-31T07:05:17;6.90;99.90
37410;DHT22;23275;48.914;12.566;2023-03-31T07:07:44;6.90;99.90
37410;DHT22;23275;48.914;12.566;2023-03-31T07:10:10;6.90;99.90
37410;DHT22;23275;48.914;12.566;2023-03-31T07:12:35;7.00;99.90
37410;DHT22;23275;48.914;12.566;2023-03-31T07:15:01;7.00;99.90
37410;DHT22;23275;48.914;12.566;2023-03-31T07:17:26;7.10;99.90
37410;DHT22;23275;48.914;12.566;2023-03-31T07:19:52;7.10;99.90
37410;DHT22;23275;48.914;12.566;2023-03-31T07:22:17;7.10;99.90
37410;DHT22;23275;48.914;12.566;2023-03-31T07:24:43;7.20;99.90
37410;DHT22;23275;48.914;12.566;2023-03-31T07:27:09;7.20;99.90
37410;DHT22;23275;48.914;12.566;2023-03-31T07:29:34;7.30;99.90
37410;DHT22;23275;48.914;12.566;2023-03-31T07:32:00;7.30;99.90
37410;DHT22;23275;48.914;12.566;2023-03-31T07:34:26;7.30;99.90
37410;DHT22;23275;48.914;12.566;2023-03-31T07:36:54;7.40;99.90
37410;DHT22;23275;48.914;12.566;2023-03-31T07:39:20;7.40;99.90
37410;DHT22;23275;48.914;12.566;2023-03-31T07:41:46;7.40;99.90
37410;DHT22;23275;48.914;12.566;2023-03-31T07:44:12;7.40;99.90
37410;DHT22;23275;48.914;12.566;2023-03-31T07:46:38;7.40;99.90
37410;DHT22;23275;48.914;12.566;2023-03-31T07:49:04;7.40;99.90
37410;DHT22;23275;48.914;12.566;2023-03-31T07:51:29;7.50;99.90
37410;DHT22;23275;48.914;12.566;2023-03-31T07:53:55;7.50;99.90
37410;DHT22;23275;48.914;12.566;2023-03-31T07:56:23;7.60;99.90
37410;DHT22;23275;48.914;12.566;2023-03-31T07:58:49;7.60;99.90
37410;DHT22;23275;48.914;12.566;2023-03-31T08:01:19;7.70;99.90
37410;DHT22;23275;48.914;12.566;2023-03-31T08:03:47;7.70;99.90
37410;DHT22;23275;48.914;12.566;2023-03-31T08:06:23;7.70;99.90
37410;DHT22;23275;48.914;12.566;2023-03-31T08:08:49;7.60;99.90
37410;DHT22;23275;48.914;12.566;2023-03-31T08:11:16;7.70;99.90
37410;DHT22;23275;48.914;12.566;2023-03-31T08:13:42;7.70;99.90
37410;DHT22;23275;48.914;12.566;2023-03-31T08:16:07;7.70;99.90
37410;DHT22;23275;48.914;12.566;2023-03-31T08:18:33;7.70;99.90
37410;DHT22;23275;48.914;12.566;2023-03-31T08:20:59;7.70;99.90
37410;DHT22;23275;48.914;12.566;2023-03-31T08:23:25;7.70;99.90
37410;DHT22;23275;48.914;12.566;2023-03-31T08:25:50;7.70;99.90
37410;DHT22;23275;48.914;12.566;2023-03-31T08:28:16;7.70;99.90
37410;DHT22;23275;48.914;12.566;2023-03-31T08:30:42;7.80;99.90
37410;DHT22;23275;48.914;12.566;2023-03-31T08:33:07;7.70;99.90
37410;DHT22;23275;48.914;12.566;2023-03-31T08:35:36;7.70;99.90
37410;DHT22;23275;48.914;12.566;2023-03-31T08:38:01;7.60;99.90
37410;DHT22;23275;48.914;12.566;2023-03-31T08:40:29;7.60;99.90
37410;DHT22;23275;48.914;12.566;2023-03-31T08:43:05;7.50;99.90
37410;DHT22;23275;48.914;12.566;2023-03-31T08:45:35;7.50;99.90
37410;DHT22;23275;48.914;12.566;2023-03-31T08:48:16;7.60;99.90
37410;DHT22;23275;48.914;12.566;2023-03-31T08:50:47;7.60;99.90
37410;DHT22;23275;48.914;12.566;2023-03-31T08:53:46;7.50;99.90
37410;DHT22;23275;48.914;12.566;2023-03-31T08:56:16;7.60;99.90
37410;DHT22;23275;48.914;12.566;2023-03-31T08:58:44;7.60;99.90
37410;DHT22;23275;48.914;12.566;2023-03-31T09:01:55;7.60;99.90
37410;DHT22;23275;48.914;12.566;2023-03-31T09:15:00;8.00;99.90
37410;DHT22;23275;48.914;12.566;2023-03-31T09:17:30;8.00;99.90
37410;DHT22;23275;48.914;12.566;2023-03-31T09:20:15;8.00;99.90
37410;DHT22;23275;48.914;12.566;2023-03-31T09:23:18;8.00;99.90
37410;DHT22;23275;48.914;12.566;2023-03-31T09:25:38;8.00;99.90
37410;DHT22;23275;48.914;12.566;2023-03-31T09:28:13;8.00;99.90
37410;DHT22;23275;48.914;12.566;2023-03-31T09:30:43;8.10;99.90
37410;DHT22;23275;48.914;12.566;2023-03-31T09:33:26;8.10;99.90
37410;DHT22;23275;48.914;12.566;2023-03-31T09:35:57;8.20;99.90
37410;DHT22;23275;48.914;12.566;2023-03-31T09:38:22;8.20;99.90
37410;DHT22;23275;48.914;12.566;2023-03-31T09:40:48;8.20;99.90
37410;DHT22;23275;48.914;12.566;2023-03-31T09:43:28;8.10;99.90
37410;DHT22;23275;48.914;12.566;2023-03-31T09:45:55;8.20;99.90
37410;DHT22;23275;48.914;12.566;2023-03-31T09:48:33;8.20;99.90
37410;DHT22;23275;48.914;12.566;2023-03-31T09:51:02;8.30;99.90
37410;DHT22;23275;48.914;12.566;2023-03-31T09:53:44;8.60;99.90
37410;DHT22;23275;48.914;12.566;2023-03-31T09:56:11;9.80;99.90
37410;DHT22;23275;48.914;12.566;2023-03-31T09:58:43;9.90;99.90
37410;DHT22;23275;48.914;12.566;2023-03-31T10:01:10;9.60;99.90
37410;DHT22;23275;48.914;12.566;2023-03-31T10:03:51;9.30;99.90
37410;DHT22;23275;48.914;12.566;2023-03-31T10:06:19;9.20;99.90
37410;DHT22;23275;48.914;12.566;2023-03-31T10:11:16;8.90;99.90
37410;DHT22;23275;48.914;12.566;2023-03-31T10:13:46;8.90;99.90
37410;DHT22;23275;48.914;12.566;2023-03-31T10:16:21;8.90;99.90
37410;DHT22;23275;48.914;12.566;2023-03-31T10:18:46;9.20;99.90
37410;DHT22;23275;48.914;12.566;2023-03-31T10:21:25;9.70;99.90
37410;DHT22;23275;48.914;12.566;2023-03-31T10:23:52;10.30;99.90
37410;DHT22;23275;48.914;12.566;2023-03-31T10:26:28;12.80;99.90
37410;DHT22;23275;48.914;12.566;2023-03-31T10:28:54;17.30;99.90
37410;DHT22;23275;48.914;12.566;2023-03-31T10:31:25;18.60;99.90
37410;DHT22;23275;48.914;12.566;2023-03-31T10:33:52;19.10;99.90
37410;DHT22;23275;48.914;12.566;2023-03-31T10:36:26;19.60;99.90
37410;DHT22;23275;48.914;12.566;2023-03-31T10:38:53;19.80;99.90
37410;DHT22;23275;48.914;12.566;2023-03-31T10:41:24;20.00;99.90
37410;DHT22;23275;48.914;12.566;2023-03-31T10:43:56;19.00;99.90
37410;DHT22;23275;48.914;12.566;2023-03-31T10:51:54;19.50;99.90
37410;DHT22;23275;48.914;12.566;2023-03-31T10:54:20;19.00;99.90
37410;DHT22;23275;48.914;12.566;2023-03-31T10:57:00;18.80;99.90
37410;DHT22;23275;48.914;12.566;2023-03-31T11:05:16;18.50;99.90
37410;DHT22;23275;48.914;12.566;2023-03-31T11:08:04;17.30;99.90
37410;DHT22;23275;48.914;12.566;2023-03-31T11:13:42;16.60;99.90
37410;DHT22;23275;48.914;12.566;2023-03-31T11:25:06;14.70;99.90
37410;DHT22;23275;48.914;12.566;2023-03-31T11:28:04;14.70;99.90
37410;DHT22;23275;48.914;12.566;2023-03-31T11:30:42;14.50;99.90
37410;DHT22;23275;48.914;12.566;2023-03-31T11:39:12;14.50;99.90
37410;DHT22;23275;48.914;12.566;2023-03-31T11:41:49;14.60;99.90
37410;DHT22;23275;48.914;12.566;2023-03-31T11:44:18;14.50;99.90
37410;DHT22;23275;48.914;12.566;2023-03-31T11:47:06;14.40;99.90
37410;DHT22;23275;48.914;12.566;2023-03-31T11:49:37;14.20;99.90
37410;DHT22;23275;48.914;12.566;2023-03-31T11:52:33;14.40;99.90
37410;DHT22;23275;48.914;12.566;2023-03-31T11:55:14;14.80;99.90
37410;DHT22;23275;48.914;12.566;2023-03-31T11:58:06;15.10;99.90
37410;DHT22;23275;48.914;12.566;2023-03-31T12:00:47;15.80;99.90
37410;DHT22;23275;48.914;12.566;2023-03-31T12:05:48;15.90;99.90
37410;DHT22;23275;48.914;12.566;2023-03-31T12:08:23;15.60;99.90
37410;DHT22;23275;48.914;12.566;2023-03-31T12:11:35;15.40;99.90
37410;DHT22;23275;48.914;12.566;2023-03-31T12:16:56;15.80;99.90
37410;DHT22;23275;48.914;12.566;2023-03-31T12:20:02;16.30;99.90
37410;DHT22;23275;48.914;12.566;2023-03-31T12:22:44;16.60;99.90
37410;DHT22;23275;48.914;12.566;2023-03-31T12:25:13;16.60;99.90
37410;DHT22;23275;48.914;12.566;2023-03-31T12:27:41;16.50;99.90
37410;DHT22;23275;48.914;12.566;2023-03-31T12:30:23;16.40;99.90
37410;DHT22;23275;48.914;12.566;2023-03-31T12:32:52;16.30;99.90
37410;DHT22;23275;48.914;12.566;2023-03-31T12:35:23;16.00;99.90
37410;DHT22;23275;48.914;12.566;2023-03-31T12:41:24;15.50;99.90
37410;DHT22;23275;48.914;12.566;2023-03-31T12:44:28;15.30;99.90
37410;DHT22;23275;48.914;12.566;2023-03-31T12:47:17;15.20;99.90
37410;DHT22;23275;48.914;12.566;2023-03-31T13:01:09;15.60;99.90
37410;DHT22;23275;48.914;12.566;2023-03-31T13:11:39;16.40;99.90
37410;DHT22;23275;48.914;12.566;2023-03-31T13:16:45;16.20;99.90
37410;DHT22;23275;48.914;12.566;2023-03-31T13:19:25;16.30;99.90
37410;DHT22;23275;48.914;12.566;2023-03-31T13:21:52;16.30;99.90
37410;DHT22;23275;48.914;12.566;2023-03-31T13:24:21;16.20;99.90
37410;DHT22;23275;48.914;12.566;2023-03-31T13:26:48;16.00;99.90
37410;DHT22;23275;48.914;12.566;2023-03-31T13:34:57;15.90;99.90
37410;DHT22;23275;48.914;12.566;2023-03-31T13:40:21;16.00;99.90
37410;DHT22;23275;48.914;12.566;2023-03-31T13:43:06;16.20;99.90
37410;DHT22;23275;48.914;12.566;2023-03-31T13:59:36;16.50;99.90
37410;DHT22;23275;48.914;12.566;2023-03-31T14:02:26;16.30;99.90
37410;DHT22;23275;48.914;12.566;2023-03-31T14:05:03;16.00;99.90
37410;DHT22;23275;48.914;12.566;2023-03-31T14:07:39;15.60;99.90
37410;DHT22;23275;48.914;12.566;2023-03-31T14:10:28;15.10;99.90
37410;DHT22;23275;48.914;12.566;2023-03-31T14:13:11;13.70;99.90
37410;DHT22;23275;48.914;12.566;2023-03-31T14:15:49;12.60;99.90
37410;DHT22;23275;48.914;12.566;2023-03-31T14:18:23;12.10;99.90
37410;DHT22;23275;48.914;12.566;2023-03-31T14:38:15;11.90;99.90
37410;DHT22;23275;48.914;12.566;2023-03-31T14:40:46;12.20;99.90
37410;DHT22;23275;48.914;12.566;2023-03-31T14:43:25;12.30;99.90
37410;DHT22;23275;48.914;12.566;2023-03-31T14:45:59;12.30;99.90
37410;DHT22;23275;48.914;12.566;2023-03-31T14:48:27;12.40;99.90
37410;DHT22;23275;48.914;12.566;2023-03-31T14:50:57;12.30;99.90
37410;DHT22;23275;48.914;12.566;2023-03-31T14:53:24;12.20;99.90
37410;DHT22;23275;48.914;12.566;2023-03-31T14:55:58;12.10;99.90
37410;DHT22;23275;48.914;12.566;2023-03-31T14:58:31;12.00;99.90
37410;DHT22;23275;48.914;12.566;2023-03-31T15:01:00;12.00;99.90
37410;DHT22;23275;48.914;12.566;2023-03-31T15:03:26;11.90;99.90
37410;DHT22;23275;48.914;12.566;2023-03-31T15:05:57;11.80;99.90
37410;DHT22;23275;48.914;12.566;2023-03-31T15:08:23;11.80;99.90
37410;DHT22;23275;48.914;12.566;2023-03-31T15:10:55;11.80;99.90
37410;DHT22;23275;48.914;12.566;2023-03-31T15:13:34;11.80;99.90
37410;DHT22;23275;48.914;12.566;2023-03-31T15:16:19;11.80;99.90
37410;DHT22;23275;48.914;12.566;2023-03-31T15:18:45;11.90;99.90
37410;DHT22;23275;48.914;12.566;2023-03-31T15:21:20;12.00;99.90
37410;DHT22;23275;48.914;12.566;2023-03-31T15:23:46;12.10;99.90
37410;DHT22;23275;48.914;12.566;2023-03-31T15:26:14;12.30;99.90
37410;DHT22;23275;48.914;12.566;2023-03-31T15:28:48;12.40;99.90
37410;DHT22;23275;48.914;12.566;2023-03-31T15:31:15;12.60;99.90
37410;DHT22;23275;48.914;12.566;2023-03-31T15:33:41;12.60;99.90
37410;DHT22;23275;48.914;12.566;2023-03-31T15:36:09;12.70;99.90
37410;DHT22;23275;48.914;12.566;2023-03-31T15:38:36;12.70;99.90
37410;DHT22;23275;48.914;12.566;2023-03-31T15:41:02;12.70;99.90
37410;DHT22;23275;48.914;12.566;2023-03-31T15:43:28;12.80;99.90
37410;DHT22;23275;48.914;12.566;2023-03-31T15:46:01;12.90;99.90
37410;DHT22;23275;48.914;12.566;2023-03-31T15:48:50;13.00;99.90
37410;DHT22;23275;48.914;12.566;2023-03-31T15:53:45;12.90;99.90
37410;DHT22;23275;48.914;12.566;2023-03-31T15:59:01;12.60;99.90
37410;DHT22;23275;48.914;12.566;2023-03-31T16:01:34;12.50;99.90
37410;DHT22;23275;48.914;12.566;2023-03-31T16:04:04;12.40;99.90
37410;DHT22;23275;48.914;12.566;2023-03-31T16:06:33;12.30;99.90
37410;DHT22;23275;48.914;12.566;2023-03-31T16:09:04;12.20;99.90
37410;DHT22;23275;48.914;12.566;2023-03-31T16:11:52;12.10;99.90
37410;DHT22;23275;48.914;12.566;2023-03-31T16:14:23;12.10;99.90
37410;DHT22;23275;48.914;12.566;2023-03-31T16:17:00;12.00;99.90
37410;DHT22;23275;48.914;12.566;2023-03-31T16:19:30;11.90;99.90
37410;DHT22;23275;48.914;12.566;2023-03-31T16:22:02;11.80;99.90
37410;DHT22;23275;48.914;12.566;2023-03-31T16:24:31;11.80;99.90
37410;DHT22;23275;48.914;12.566;2023-03-31T16:27:03;11.70;99.90
37410;DHT22;23275;48.914;12.566;2023-03-31T16:29:34;11.70;99.90
37410;DHT22;23275;48.914;12.566;2023-03-31T16:34:32;11.60;99.90
37410;DHT22;23275;48.914;12.566;2023-03-31T16:36:58;11.60;99.90
37410;DHT22;23275;48.914;12.566;2023-03-31T16:39:23;11.60;99.90
37410;DHT22;23275;48.914;12.566;2023-03-31T16:41:49;11.60;99.90
37410;DHT22;23275;48.914;12.566;2023-03-31T16:44:15;11.60;99.90
37410;DHT22;23275;48.914;12.566;2023-03-31T16:46:40;11.50;99.90
37410;DHT22;23275;48.914;12.566;2023-03-31T16:49:06;11.50;99.90
37410;DHT22;23275;48.914;12.566;2023-03-31T16:51:31;11.50;99.90
37410;DHT22;23275;48.914;12.566;2023-03-31T16:53:57;11.40;99.90
37410;DHT22;23275;48.914;12.566;2023-03-31T16:56:22;11.40;99.90
37410;DHT22;23275;48.914;12.566;2023-03-31T16:58:48;11.30;99.90
37410;DHT22;23275;48.914;12.566;2023-03-31T17:01:14;11.20;99.90
37410;DHT22;23275;48.914;12.566;2023-03-31T17:03:39;11.10;99.90
37410;DHT22;23275;48.914;12.566;2023-03-31T17:06:10;11.00;99.90
37410;DHT22;23275;48.914;12.566;2023-03-31T17:08:37;10.90;99.90
37410;DHT22;23275;48.914;12.566;2023-03-31T17:11:11;10.80;99.90
37410;DHT22;23275;48.914;12.566;2023-03-31T17:13:39;10.70;99.90
37410;DHT22;23275;48.914;12.566;2023-03-31T17:16:06;10.70;99.90
37410;DHT22;23275;48.914;12.566;2023-03-31T17:18:32;10.70;99.90
37410;DHT22;23275;48.914;12.566;2023-03-31T17:21:06;10.60;99.90
37410;DHT22;23275;48.914;12.566;2023-03-31T17:23:32;10.50;99.90
37410;DHT22;23275;48.914;12.566;2023-03-31T17:25:58;10.40;99.90
37410;DHT22;23275;48.914;12.566;2023-03-31T17:28:24;10.40;99.90
37410;DHT22;23275;48.914;12.566;2023-03-31T17:30:50;10.30;99.90
37410;DHT22;23275;48.914;12.566;2023-03-31T17:33:16;10.10;99.90
37410;DHT22;23275;48.914;12.566;2023-03-31T17:35:42;9.90;99.90
37410;DHT22;23275;48.914;12.566;2023-03-31T17:38:08;9.80;99.90
37410;DHT22;23275;48.914;12.566;2023-03-31T17:40:35;9.70;99.90
37410;DHT22;23275;48.914;12.566;2023-03-31T17:43:01;9.50;99.90
37410;DHT22;23275;48.914;12.566;2023-03-31T17:45:28;9.50;99.90
37410;DHT22;23275;48.914;12.566;2023-03-31T17:47:54;9.40;99.90
37410;DHT22;23275;48.914;12.566;2023-03-31T17:50:20;9.30;99.90
37410;DHT22;23275;48.914;12.566;2023-03-31T17:52:46;9.20;99.90
37410;DHT22;23275;48.914;12.566;2023-03-31T17:55:11;9.00;99.90
37410;DHT22;23275;48.914;12.566;2023-03-31T17:57:38;8.90;99.90
37410;DHT22;23275;48.914;12.566;2023-03-31T18:00:06;8.80;99.90
37410;DHT22;23275;48.914;12.566;2023-03-31T18:02:37;8.80;99.90
37410;DHT22;23275;48.914;12.566;2023-03-31T18:05:08;8.70;99.90
37410;DHT22;23275;48.914;12.566;2023-03-31T18:07:35;8.70;99.90
37410;DHT22;23275;48.914;12.566;2023-03-31T18:10:01;8.70;99.90
37410;DHT22;23275;48.914;12.566;2023-03-31T18:12:33;8.60;99.90
37410;DHT22;23275;48.914;12.566;2023-03-31T18:14:59;8.60;99.90
37410;DHT22;23275;48.914;12.566;2023-03-31T18:17:26;8.60;99.90
37410;DHT22;23275;48.914;12.566;2023-03-31T18:19:51;8.60;99.90
37410;DHT22;23275;48.914;12.566;2023-03-31T18:22:17;8.60;99.90
37410;DHT22;23275;48.914;12.566;2023-03-31T18:24:42;8.60;99.90
37410;DHT22;23275;48.914;12.566;2023-03-31T18:27:08;8.70;99.90
37410;DHT22;23275;48.914;12.566;2023-03-31T18:29:34;8.70;99.90
37410;DHT22;23275;48.914;12.566;2023-03-31T18:32:00;8.60;99.90
37410;DHT22;23275;48.914;12.566;2023-03-31T18:34:26;8.60;99.90